sensor_id;sensor_type;location;lat;lon;timestamp;P1;durP1;ratioP1;P2;durP2;ratioP2
65871;SDS011;52653;50.080;21.992;2022-12-18T00:00:40;63.50;;;28.00;;
65871;SDS011;52653;50.080;21.992;2022-12-18T00:03:33;64.50;;;29.40;;
65871;SDS011;52653;50.080;21.992;2022-12-18T00:06:08;61.40;;;26.20;;
65871;SDS011;52653;50.080;21.992;2022-12-18T00:08:40;69.20;;;30.90;;
65871;SDS011;52653;50.080;21.992;2022-12-18T00:11:15;63.80;;;27.70;;
65871;SDS011;52653;50.080;21.992;2022-12-18T00:13:48;68.80;;;28.40;;
65871;SDS011;52653;50.080;21.992;2022-12-18T00:16:22;65.30;;;28.70;;
65871;SDS011;52653;50.080;21.992;2022-12-18T00:18:59;61.00;;;28.20;;
65871;SDS011;52653;50.080;21.992;2022-12-18T00:21:32;61.00;;;27.20;;
65871;SDS011;52653;50.080;21.992;2022-12-18T00:24:10;67.50;;;29.30;;
65871;SDS011;52653;50.080;21.992;2022-12-18T00:26:42;52.20;;;22.60;;
65871;SDS011;52653;50.080;21.992;2022-12-18T00:29:15;56.90;;;26.10;;
65871;SDS011;52653;50.080;21.992;2022-12-18T00:31:47;58.00;;;26.00;;
65871;SDS011;52653;50.080;21.992;2022-12-18T00:34:19;55.40;;;24.10;;
65871;SDS011;52653;50.080;21.992;2022-12-18T00:36:53;53.30;;;26.60;;
65871;SDS011;52653;50.080;21.992;2022-12-18T00:39:26;54.70;;;27.60;;
65871;SDS011;52653;50.080;21.992;2022-12-18T00:41:58;52.80;;;24.40;;
65871;SDS011;52653;50.080;21.992;2022-12-18T00:44:49;54.50;;;25.80;;
65871;SDS011;52653;50.080;21.992;2022-12-18T00:47:21;52.50;;;24.60;;
65871;SDS011;52653;50.080;21.992;2022-12-18T00:49:54;51.30;;;24.10;;
65871;SDS011;52653;50.080;21.992;2022-12-18T00:52:27;42.90;;;19.40;;
65871;SDS011;52653;50.080;21.992;2022-12-18T00:54:59;53.80;;;24.70;;
65871;SDS011;52653;50.080;21.992;2022-12-18T00:57:34;58.50;;;24.90;;
65871;SDS011;52653;50.080;21.992;2022-12-18T01:00:10;50.70;;;23.40;;
65871;SDS011;52653;50.080;21.992;2022-12-18T01:02:43;53.30;;;24.80;;
65871;SDS011;52653;50.080;21.992;2022-12-18T01:05:16;53.90;;;25.00;;
65871;SDS011;52653;50.080;21.992;2022-12-18T01:07:48;49.30;;;25.10;;
65871;SDS011;52653;50.080;21.992;2022-12-18T01:10:21;49.50;;;22.70;;
65871;SDS011;52653;50.080;21.992;2022-12-18T01:12:53;44.20;;;21.00;;
65871;SDS011;52653;50.080;21.992;2022-12-18T01:15:26;47.60;;;23.50;;
65871;SDS011;52653;50.080;21.992;2022-12-18T01:17:58;44.00;;;21.30;;
65871;SDS011;52653;50.080;21.992;2022-12-18T01:20:30;42.40;;;21.20;;
65871;SDS011;52653;50.080;21.992;2022-12-18T01:23:03;46.10;;;23.10;;
65871;SDS011;52653;50.080;21.992;2022-12-18T01:25:36;42.70;;;20.30;;
65871;SDS011;52653;50.080;21.992;2022-12-18T01:28:11;42.90;;;21.20;;
65871;SDS011;52653;50.080;21.992;2022-12-18T01:30:43;45.50;;;22.20;;
65871;SDS011;52653;50.080;21.992;2022-12-18T01:33:15;48.40;;;22.60;;
65871;SDS011;52653;50.080;21.992;2022-12-18T01:35:47;44.90;;;22.80;;
65871;SDS011;52653;50.080;21.992;2022-12-18T01:38:19;39.40;;;17.20;;
65871;SDS011;52653;50.080;21.992;2022-12-18T01:40:57;37.10;;;19.90;;
65871;SDS011;52653;50.080;21.992;2022-12-18T01:43:46;40.20;;;19.90;;
65871;SDS011;52653;50.080;21.992;2022-12-18T01:46:22;39.20;;;19.50;;
65871;SDS011;52653;50.080;21.992;2022-12-18T01:48:57;38.80;;;18.90;;
65871;SDS011;52653;50.080;21.992;2022-12-18T01:51:32;39.30;;;19.20;;
65871;SDS011;52653;50.080;21.992;2022-12-18T01:54:04;37.60;;;17.80;;
65871;SDS011;52653;50.080;21.992;2022-12-18T01:56:36;44.90;;;20.70;;
65871;SDS011;52653;50.080;21.992;2022-12-18T01:59:09;42.20;;;18.30;;
65871;SDS011;52653;50.080;21.992;2022-12-18T02:01:42;41.30;;;19.00;;
65871;SDS011;52653;50.080;21.992;2022-12-18T02:04:20;42.30;;;18.80;;
65871;SDS011;52653;50.080;21.992;2022-12-18T02:06:54;42.80;;;19.20;;
65871;SDS011;52653;50.080;21.992;2022-12-18T02:09:33;48.40;;;19.90;;
65871;SDS011;52653;50.080;21.992;2022-12-18T02:12:13;47.00;;;20.80;;
65871;SDS011;52653;50.080;21.992;2022-12-18T02:14:52;48.90;;;19.80;;
65871;SDS011;52653;50.080;21.992;2022-12-18T02:17:31;48.40;;;20.00;;
65871;SDS011;52653;50.080;21.992;2022-12-18T02:20:12;44.60;;;20.70;;
65871;SDS011;52653;50.080;21.992;2022-12-18T02:22:53;47.80;;;21.70;;
65871;SDS011;52653;50.080;21.992;2022-12-18T02:28:36;48.70;;;20.50;;
65871;SDS011;52653;50.080;21.992;2022-12-18T02:33:46;44.60;;;19.20;;
65871;SDS011;52653;50.080;21.992;2022-12-18T02:36:21;45.70;;;20.00;;
65871;SDS011;52653;50.080;21.992;2022-12-18T02:38:56;44.80;;;22.20;;
65871;SDS011;52653;50.080;21.992;2022-12-18T02:41:32;40.10;;;20.20;;
65871;SDS011;52653;50.080;21.992;2022-12-18T02:44:08;46.80;;;21.80;;
65871;SDS011;52653;50.080;21.992;2022-12-18T02:46:43;47.50;;;24.70;;
65871;SDS011;52653;50.080;21.992;2022-12-18T02:49:24;51.20;;;22.90;;
65871;SDS011;52653;50.080;21.992;2022-12-18T02:52:05;44.70;;;21.30;;
65871;SDS011;52653;50.080;21.992;2022-12-18T02:54:51;46.00;;;22.20;;
65871;SDS011;52653;50.080;21.992;2022-12-18T02:57:32;47.40;;;21.10;;
65871;SDS011;52653;50.080;21.992;2022-12-18T03:00:14;43.00;;;19.20;;
65871;SDS011;52653;50.080;21.992;2022-12-18T03:02:51;37.60;;;17.30;;
65871;SDS011;52653;50.080;21.992;2022-12-18T03:05:31;37.40;;;17.10;;
65871;SDS011;52653;50.080;21.992;2022-12-18T03:08:10;39.30;;;16.40;;
65871;SDS011;52653;50.080;21.992;2022-12-18T03:10:48;37.80;;;17.50;;
65871;SDS011;52653;50.080;21.992;2022-12-18T03:13:25;33.80;;;16.40;;
65871;SDS011;52653;50.080;21.992;2022-12-18T03:16:01;40.60;;;17.60;;
65871;SDS011;52653;50.080;21.992;2022-12-18T03:18:37;36.40;;;16.40;;
65871;SDS011;52653;50.080;21.992;2022-12-18T03:21:16;34.90;;;15.60;;
65871;SDS011;52653;50.080;21.992;2022-12-18T03:23:53;34.20;;;15.50;;
65871;SDS011;52653;50.080;21.992;2022-12-18T03:26:27;32.40;;;15.60;;
65871;SDS011;52653;50.080;21.992;2022-12-18T03:29:04;31.00;;;16.10;;
65871;SDS011;52653;50.080;21.992;2022-12-18T03:31:42;31.00;;;14.20;;
65871;SDS011;52653;50.080;21.992;2022-12-18T03:34:21;34.30;;;15.80;;
65871;SDS011;52653;50.080;21.992;2022-12-18T03:37:00;30.40;;;15.10;;
65871;SDS011;52653;50.080;21.992;2022-12-18T03:39:33;30.70;;;14.30;;
65871;SDS011;52653;50.080;21.992;2022-12-18T03:42:07;29.40;;;15.10;;
65871;SDS011;52653;50.080;21.992;2022-12-18T03:44:52;33.90;;;14.00;;
65871;SDS011;52653;50.080;21.992;2022-12-18T03:47:34;31.10;;;14.20;;
65871;SDS011;52653;50.080;21.992;2022-12-18T03:50:11;31.50;;;14.90;;
65871;SDS011;52653;50.080;21.992;2022-12-18T03:52:49;30.30;;;14.20;;
65871;SDS011;52653;50.080;21.992;2022-12-18T03:55:25;27.70;;;13.70;;
65871;SDS011;52653;50.080;21.992;2022-12-18T03:58:02;27.80;;;13.00;;
65871;SDS011;52653;50.080;21.992;2022-12-18T04:00:48;27.80;;;13.50;;
65871;SDS011;52653;50.080;21.992;2022-12-18T04:03:23;25.40;;;12.30;;
65871;SDS011;52653;50.080;21.992;2022-12-18T04:05:58;25.90;;;12.70;;
65871;SDS011;52653;50.080;21.992;2022-12-18T04:08:33;28.40;;;14.70;;
65871;SDS011;52653;50.080;21.992;2022-12-18T04:11:07;28.60;;;13.90;;
65871;SDS011;52653;50.080;21.992;2022-12-18T04:13:40;29.10;;;14.40;;
65871;SDS011;52653;50.080;21.992;2022-12-18T04:16:23;27.30;;;14.20;;
65871;SDS011;52653;50.080;21.992;2022-12-18T04:18:58;28.60;;;14.30;;
65871;SDS011;52653;50.080;21.992;2022-12-18T04:21:32;26.60;;;13.90;;
65871;SDS011;52653;50.080;21.992;2022-12-18T04:24:05;27.00;;;13.10;;
65871;SDS011;52653;50.080;21.992;2022-12-18T04:26:38;26.20;;;13.70;;
65871;SDS011;52653;50.080;21.992;2022-12-18T04:29:19;22.20;;;11.30;;
65871;SDS011;52653;50.080;21.992;2022-12-18T04:31:53;30.10;;;14.70;;
65871;SDS011;52653;50.080;21.992;2022-12-18T04:34:27;24.80;;;12.80;;
65871;SDS011;52653;50.080;21.992;2022-12-18T04:36:59;26.50;;;14.10;;
65871;SDS011;52653;50.080;21.992;2022-12-18T04:39:33;27.90;;;13.80;;
65871;SDS011;52653;50.080;21.992;2022-12-18T04:42:10;28.70;;;14.60;;
65871;SDS011;52653;50.080;21.992;2022-12-18T04:44:42;27.60;;;13.70;;
65871;SDS011;52653;50.080;21.992;2022-12-18T04:47:14;32.70;;;15.80;;
65871;SDS011;52653;50.080;21.992;2022-12-18T04:49:46;30.00;;;14.70;;
65871;SDS011;52653;50.080;21.992;2022-12-18T04:52:19;25.60;;;12.40;;
65871;SDS011;52653;50.080;21.992;2022-12-18T04:54:54;28.30;;;12.90;;
65871;SDS011;52653;50.080;21.992;2022-12-18T04:57:26;27.30;;;13.20;;
65871;SDS011;52653;50.080;21.992;2022-12-18T04:59:58;29.10;;;14.40;;
65871;SDS011;52653;50.080;21.992;2022-12-18T05:02:31;25.70;;;12.80;;
65871;SDS011;52653;50.080;21.992;2022-12-18T05:05:04;27.00;;;13.50;;
65871;SDS011;52653;50.080;21.992;2022-12-18T05:07:37;24.40;;;12.90;;
65871;SDS011;52653;50.080;21.992;2022-12-18T05:10:09;24.40;;;12.20;;
65871;SDS011;52653;50.080;21.992;2022-12-18T05:12:41;28.30;;;14.50;;
65871;SDS011;52653;50.080;21.992;2022-12-18T05:15:29;26.80;;;13.00;;
65871;SDS011;52653;50.080;21.992;2022-12-18T05:18:03;24.00;;;12.30;;
65871;SDS011;52653;50.080;21.992;2022-12-18T05:20:35;30.40;;;14.50;;
65871;SDS011;52653;50.080;21.992;2022-12-18T05:23:08;28.40;;;15.60;;
65871;SDS011;52653;50.080;21.992;2022-12-18T05:25:40;30.20;;;14.30;;
65871;SDS011;52653;50.080;21.992;2022-12-18T05:28:13;26.90;;;14.80;;
65871;SDS011;52653;50.080;21.992;2022-12-18T05:30:48;30.40;;;15.10;;
65871;SDS011;52653;50.080;21.992;2022-12-18T05:33:21;28.00;;;14.40;;
65871;SDS011;52653;50.080;21.992;2022-12-18T05:35:55;33.60;;;16.70;;
65871;SDS011;52653;50.080;21.992;2022-12-18T05:38:30;23.80;;;11.90;;
65871;SDS011;52653;50.080;21.992;2022-12-18T05:41:04;24.10;;;12.40;;
65871;SDS011;52653;50.080;21.992;2022-12-18T05:43:37;24.80;;;12.80;;
65871;SDS011;52653;50.080;21.992;2022-12-18T05:46:11;27.10;;;14.20;;
65871;SDS011;52653;50.080;21.992;2022-12-18T05:48:45;28.80;;;14.40;;
65871;SDS011;52653;50.080;21.992;2022-12-18T05:51:20;31.50;;;15.20;;
65871;SDS011;52653;50.080;21.992;2022-12-18T05:53:54;42.00;;;18.40;;
65871;SDS011;52653;50.080;21.992;2022-12-18T05:56:26;39.90;;;18.00;;
65871;SDS011;52653;50.080;21.992;2022-12-18T05:58:58;35.60;;;17.50;;
65871;SDS011;52653;50.080;21.992;2022-12-18T06:01:31;30.90;;;16.30;;
65871;SDS011;52653;50.080;21.992;2022-12-18T06:04:03;31.60;;;16.50;;
65871;SDS011;52653;50.080;21.992;2022-12-18T06:06:37;29.20;;;15.50;;
65871;SDS011;52653;50.080;21.992;2022-12-18T06:09:09;30.60;;;16.20;;
65871;SDS011;52653;50.080;21.992;2022-12-18T06:11:42;30.90;;;16.10;;
65871;SDS011;52653;50.080;21.992;2022-12-18T06:14:14;26.00;;;13.60;;
65871;SDS011;52653;50.080;21.992;2022-12-18T06:16:47;28.00;;;15.40;;
65871;SDS011;52653;50.080;21.992;2022-12-18T06:19:20;27.90;;;15.80;;
65871;SDS011;52653;50.080;21.992;2022-12-18T06:21:54;27.90;;;15.30;;
65871;SDS011;52653;50.080;21.992;2022-12-18T06:24:28;32.50;;;16.80;;
65871;SDS011;52653;50.080;21.992;2022-12-18T06:27:00;33.40;;;17.90;;
65871;SDS011;52653;50.080;21.992;2022-12-18T06:29:32;30.30;;;16.20;;
65871;SDS011;52653;50.080;21.992;2022-12-18T06:32:05;28.80;;;15.20;;
65871;SDS011;52653;50.080;21.992;2022-12-18T06:34:38;27.00;;;13.90;;
65871;SDS011;52653;50.080;21.992;2022-12-18T06:37:10;26.20;;;14.40;;
65871;SDS011;52653;50.080;21.992;2022-12-18T06:39:42;29.00;;;15.30;;
65871;SDS011;52653;50.080;21.992;2022-12-18T06:42:14;29.30;;;16.40;;
65871;SDS011;52653;50.080;21.992;2022-12-18T06:44:51;30.00;;;16.10;;
65871;SDS011;52653;50.080;21.992;2022-12-18T06:47:24;31.10;;;17.30;;
65871;SDS011;52653;50.080;21.992;2022-12-18T06:49:56;31.40;;;15.00;;
65871;SDS011;52653;50.080;21.992;2022-12-18T06:52:28;27.40;;;15.30;;
65871;SDS011;52653;50.080;21.992;2022-12-18T06:55:01;28.90;;;15.20;;
65871;SDS011;52653;50.080;21.992;2022-12-18T06:57:35;28.60;;;15.10;;
65871;SDS011;52653;50.080;21.992;2022-12-18T07:00:08;27.70;;;14.90;;
65871;SDS011;52653;50.080;21.992;2022-12-18T07:02:41;29.50;;;15.90;;
65871;SDS011;52653;50.080;21.992;2022-12-18T07:05:14;33.00;;;15.50;;
65871;SDS011;52653;50.080;21.992;2022-12-18T07:07:47;28.10;;;15.00;;
65871;SDS011;52653;50.080;21.992;2022-12-18T07:10:19;34.00;;;17.50;;
65871;SDS011;52653;50.080;21.992;2022-12-18T07:12:52;32.50;;;15.80;;
65871;SDS011;52653;50.080;21.992;2022-12-18T07:15:24;27.50;;;15.80;;
65871;SDS011;52653;50.080;21.992;2022-12-18T07:17:56;40.00;;;18.70;;
65871;SDS011;52653;50.080;21.992;2022-12-18T07:20:28;34.80;;;16.00;;
65871;SDS011;52653;50.080;21.992;2022-12-18T07:23:01;36.40;;;17.70;;
65871;SDS011;52653;50.080;21.992;2022-12-18T07:25:35;30.80;;;16.00;;
65871;SDS011;52653;50.080;21.992;2022-12-18T07:28:08;38.70;;;18.60;;
65871;SDS011;52653;50.080;21.992;2022-12-18T07:30:45;33.90;;;16.90;;
65871;SDS011;52653;50.080;21.992;2022-12-18T07:33:17;29.80;;;16.40;;
65871;SDS011;52653;50.080;21.992;2022-12-18T07:35:50;32.20;;;17.00;;
65871;SDS011;52653;50.080;21.992;2022-12-18T07:38:22;32.80;;;16.80;;
65871;SDS011;52653;50.080;21.992;2022-12-18T07:40:59;34.10;;;16.80;;
65871;SDS011;52653;50.080;21.992;2022-12-18T07:43:34;31.20;;;16.30;;
65871;SDS011;52653;50.080;21.992;2022-12-18T07:46:08;28.60;;;14.60;;
65871;SDS011;52653;50.080;21.992;2022-12-18T07:48:44;33.10;;;17.00;;
65871;SDS011;52653;50.080;21.992;2022-12-18T07:51:18;31.90;;;15.30;;
65871;SDS011;52653;50.080;21.992;2022-12-18T07:53:51;26.60;;;14.80;;
65871;SDS011;52653;50.080;21.992;2022-12-18T07:56:23;28.10;;;14.70;;
65871;SDS011;52653;50.080;21.992;2022-12-18T07:58:58;32.10;;;15.90;;
65871;SDS011;52653;50.080;21.992;2022-12-18T08:01:33;31.10;;;14.30;;
65871;SDS011;52653;50.080;21.992;2022-12-18T08:04:05;29.40;;;16.10;;
65871;SDS011;52653;50.080;21.992;2022-12-18T08:06:37;31.10;;;16.80;;
65871;SDS011;52653;50.080;21.992;2022-12-18T08:09:15;29.40;;;16.20;;
65871;SDS011;52653;50.080;21.992;2022-12-18T08:11:48;32.10;;;16.30;;
65871;SDS011;52653;50.080;21.992;2022-12-18T08:14:20;31.20;;;16.80;;
65871;SDS011;52653;50.080;21.992;2022-12-18T08:16:52;34.80;;;18.20;;
65871;SDS011;52653;50.080;21.992;2022-12-18T08:19:25;32.30;;;16.90;;
65871;SDS011;52653;50.080;21.992;2022-12-18T08:21:57;32.00;;;17.00;;
65871;SDS011;52653;50.080;21.992;2022-12-18T08:24:29;29.40;;;16.10;;
65871;SDS011;52653;50.080;21.992;2022-12-18T08:27:02;36.10;;;19.00;;
65871;SDS011;52653;50.080;21.992;2022-12-18T08:29:54;32.80;;;17.40;;
65871;SDS011;52653;50.080;21.992;2022-12-18T08:32:26;34.70;;;19.60;;
65871;SDS011;52653;50.080;21.992;2022-12-18T08:35:00;33.70;;;17.90;;
65871;SDS011;52653;50.080;21.992;2022-12-18T08:37:33;34.40;;;17.80;;
65871;SDS011;52653;50.080;21.992;2022-12-18T08:40:06;32.70;;;17.60;;
65871;SDS011;52653;50.080;21.992;2022-12-18T08:42:39;33.70;;;18.20;;
65871;SDS011;52653;50.080;21.992;2022-12-18T08:45:29;29.20;;;15.30;;
65871;SDS011;52653;50.080;21.992;2022-12-18T08:48:01;29.60;;;15.10;;
65871;SDS011;52653;50.080;21.992;2022-12-18T08:50:33;29.60;;;15.90;;
65871;SDS011;52653;50.080;21.992;2022-12-18T08:53:06;31.60;;;15.30;;
65871;SDS011;52653;50.080;21.992;2022-12-18T08:55:38;28.10;;;14.40;;
65871;SDS011;52653;50.080;21.992;2022-12-18T08:58:19;29.00;;;15.00;;
65871;SDS011;52653;50.080;21.992;2022-12-18T09:00:51;27.20;;;14.10;;
65871;SDS011;52653;50.080;21.992;2022-12-18T09:03:23;31.20;;;17.30;;
65871;SDS011;52653;50.080;21.992;2022-12-18T09:05:56;56.70;;;26.30;;
65871;SDS011;52653;50.080;21.992;2022-12-18T09:08:28;69.00;;;33.40;;
65871;SDS011;52653;50.080;21.992;2022-12-18T09:11:00;61.10;;;31.30;;
65871;SDS011;52653;50.080;21.992;2022-12-18T09:13:33;60.90;;;34.50;;
65871;SDS011;52653;50.080;21.992;2022-12-18T09:16:06;48.80;;;29.20;;
65871;SDS011;52653;50.080;21.992;2022-12-18T09:18:38;44.80;;;24.10;;
65871;SDS011;52653;50.080;21.992;2022-12-18T09:21:12;48.80;;;26.20;;
65871;SDS011;52653;50.080;21.992;2022-12-18T09:23:50;43.60;;;22.60;;
65871;SDS011;52653;50.080;21.992;2022-12-18T09:26:24;43.80;;;24.30;;
65871;SDS011;52653;50.080;21.992;2022-12-18T09:28:56;35.80;;;20.40;;
65871;SDS011;52653;50.080;21.992;2022-12-18T09:31:28;38.00;;;21.10;;
65871;SDS011;52653;50.080;21.992;2022-12-18T09:34:01;37.50;;;22.00;;
65871;SDS011;52653;50.080;21.992;2022-12-18T09:36:33;46.00;;;25.20;;
65871;SDS011;52653;50.080;21.992;2022-12-18T09:39:05;41.30;;;22.20;;
65871;SDS011;52653;50.080;21.992;2022-12-18T09:41:42;43.10;;;22.70;;
65871;SDS011;52653;50.080;21.992;2022-12-18T09:44:22;32.40;;;17.10;;
65871;SDS011;52653;50.080;21.992;2022-12-18T09:47:07;31.60;;;15.50;;
65871;SDS011;52653;50.080;21.992;2022-12-18T09:49:45;31.00;;;17.40;;
65871;SDS011;52653;50.080;21.992;2022-12-18T09:52:21;29.60;;;14.90;;
65871;SDS011;52653;50.080;21.992;2022-12-18T09:54:58;32.80;;;15.50;;
65871;SDS011;52653;50.080;21.992;2022-12-18T09:57:37;27.90;;;12.40;;
65871;SDS011;52653;50.080;21.992;2022-12-18T10:00:16;25.80;;;14.40;;
65871;SDS011;52653;50.080;21.992;2022-12-18T10:02:51;28.30;;;14.50;;
65871;SDS011;52653;50.080;21.992;2022-12-18T10:05:31;31.90;;;17.10;;
65871;SDS011;52653;50.080;21.992;2022-12-18T10:08:09;32.80;;;18.10;;
65871;SDS011;52653;50.080;21.992;2022-12-18T10:10:47;34.20;;;17.50;;
65871;SDS011;52653;50.080;21.992;2022-12-18T10:13:25;30.70;;;17.80;;
65871;SDS011;52653;50.080;21.992;2022-12-18T10:16:07;32.20;;;16.60;;
65871;SDS011;52653;50.080;21.992;2022-12-18T10:18:56;35.90;;;18.80;;
65871;SDS011;52653;50.080;21.992;2022-12-18T10:21:42;37.30;;;19.10;;
65871;SDS011;52653;50.080;21.992;2022-12-18T10:24:22;44.90;;;23.80;;
65871;SDS011;52653;50.080;21.992;2022-12-18T10:27:04;38.90;;;20.80;;
65871;SDS011;52653;50.080;21.992;2022-12-18T10:29:44;37.30;;;19.20;;
65871;SDS011;52653;50.080;21.992;2022-12-18T10:32:18;28.60;;;16.40;;
65871;SDS011;52653;50.080;21.992;2022-12-18T10:34:54;32.60;;;16.60;;
65871;SDS011;52653;50.080;21.992;2022-12-18T10:37:29;29.00;;;15.00;;
65871;SDS011;52653;50.080;21.992;2022-12-18T10:40:09;28.60;;;15.80;;
65871;SDS011;52653;50.080;21.992;2022-12-18T10:42:55;29.10;;;15.20;;
65871;SDS011;52653;50.080;21.992;2022-12-18T10:45:36;30.80;;;17.00;;
65871;SDS011;52653;50.080;21.992;2022-12-18T10:48:18;30.00;;;16.80;;
65871;SDS011;52653;50.080;21.992;2022-12-18T10:50:53;32.50;;;18.30;;
65871;SDS011;52653;50.080;21.992;2022-12-18T10:53:41;31.80;;;17.80;;
65871;SDS011;52653;50.080;21.992;2022-12-18T10:56:22;34.90;;;18.40;;
65871;SDS011;52653;50.080;21.992;2022-12-18T10:58:58;31.00;;;17.20;;
65871;SDS011;52653;50.080;21.992;2022-12-18T11:01:46;30.30;;;15.40;;
65871;SDS011;52653;50.080;21.992;2022-12-18T11:04:25;32.10;;;18.00;;
65871;SDS011;52653;50.080;21.992;2022-12-18T11:06:59;33.50;;;18.20;;
65871;SDS011;52653;50.080;21.992;2022-12-18T11:09:34;36.50;;;19.70;;
65871;SDS011;52653;50.080;21.992;2022-12-18T11:12:14;31.50;;;17.20;;
65871;SDS011;52653;50.080;21.992;2022-12-18T11:14:48;39.60;;;21.30;;
65871;SDS011;52653;50.080;21.992;2022-12-18T11:17:24;37.20;;;20.00;;
65871;SDS011;52653;50.080;21.992;2022-12-18T11:19:59;29.60;;;15.70;;
65871;SDS011;52653;50.080;21.992;2022-12-18T11:22:35;27.60;;;14.20;;
65871;SDS011;52653;50.080;21.992;2022-12-18T11:25:16;36.20;;;18.30;;
65871;SDS011;52653;50.080;21.992;2022-12-18T11:28:03;39.10;;;19.10;;
65871;SDS011;52653;50.080;21.992;2022-12-18T11:33:56;29.10;;;15.20;;
65871;SDS011;52653;50.080;21.992;2022-12-18T11:36:55;32.20;;;15.80;;
65871;SDS011;52653;50.080;21.992;2022-12-18T11:39:34;35.00;;;17.10;;
65871;SDS011;52653;50.080;21.992;2022-12-18T11:42:12;36.20;;;18.50;;
65871;SDS011;52653;50.080;21.992;2022-12-18T11:44:50;27.30;;;14.00;;
65871;SDS011;52653;50.080;21.992;2022-12-18T11:47:27;32.50;;;16.80;;
65871;SDS011;52653;50.080;21.992;2022-12-18T11:50:05;29.00;;;16.30;;
65871;SDS011;52653;50.080;21.992;2022-12-18T11:52:44;32.10;;;17.50;;
65871;SDS011;52653;50.080;21.992;2022-12-18T11:55:27;28.90;;;17.10;;
65871;SDS011;52653;50.080;21.992;2022-12-18T11:58:09;27.30;;;15.30;;
65871;SDS011;52653;50.080;21.992;2022-12-18T12:00:51;28.10;;;14.70;;
65871;SDS011;52653;50.080;21.992;2022-12-18T12:06:43;33.80;;;18.00;;
65871;SDS011;52653;50.080;21.992;2022-12-18T12:09:31;31.00;;;17.90;;
65871;SDS011;52653;50.080;21.992;2022-12-18T12:12:15;27.50;;;15.50;;
65871;SDS011;52653;50.080;21.992;2022-12-18T12:15:01;28.40;;;16.40;;
65871;SDS011;52653;50.080;21.992;2022-12-18T12:17:44;28.10;;;16.00;;
65871;SDS011;52653;50.080;21.992;2022-12-18T12:20:21;33.70;;;17.90;;
65871;SDS011;52653;50.080;21.992;2022-12-18T12:23:05;33.70;;;17.50;;
65871;SDS011;52653;50.080;21.992;2022-12-18T12:25:57;30.00;;;16.20;;
65871;SDS011;52653;50.080;21.992;2022-12-18T12:31:18;29.70;;;17.10;;
65871;SDS011;52653;50.080;21.992;2022-12-18T12:34:01;33.10;;;17.30;;
65871;SDS011;52653;50.080;21.992;2022-12-18T12:36:45;37.00;;;19.90;;
65871;SDS011;52653;50.080;21.992;2022-12-18T12:39:28;36.30;;;20.00;;
65871;SDS011;52653;50.080;21.992;2022-12-18T12:42:05;40.60;;;23.00;;
65871;SDS011;52653;50.080;21.992;2022-12-18T12:45:01;41.10;;;23.00;;
65871;SDS011;52653;50.080;21.992;2022-12-18T12:47:45;38.10;;;18.90;;
65871;SDS011;52653;50.080;21.992;2022-12-18T12:50:20;34.10;;;18.50;;
65871;SDS011;52653;50.080;21.992;2022-12-18T12:52:54;39.90;;;20.60;;
65871;SDS011;52653;50.080;21.992;2022-12-18T12:55:27;34.70;;;17.70;;
65871;SDS011;52653;50.080;21.992;2022-12-18T12:58:02;31.60;;;15.70;;
65871;SDS011;52653;50.080;21.992;2022-12-18T13:00:46;31.40;;;15.70;;
65871;SDS011;52653;50.080;21.992;2022-12-18T13:03:31;29.00;;;15.60;;
65871;SDS011;52653;50.080;21.992;2022-12-18T13:06:16;34.10;;;16.70;;
65871;SDS011;52653;50.080;21.992;2022-12-18T13:08:59;26.10;;;13.90;;
65871;SDS011;52653;50.080;21.992;2022-12-18T13:11:34;29.10;;;15.50;;
65871;SDS011;52653;50.080;21.992;2022-12-18T13:14:31;27.90;;;14.40;;
65871;SDS011;52653;50.080;21.992;2022-12-18T13:17:21;27.10;;;14.70;;
65871;SDS011;52653;50.080;21.992;2022-12-18T13:20:12;27.20;;;15.00;;
65871;SDS011;52653;50.080;21.992;2022-12-18T13:22:46;31.90;;;15.50;;
65871;SDS011;52653;50.080;21.992;2022-12-18T13:25:33;25.00;;;14.10;;
65871;SDS011;52653;50.080;21.992;2022-12-18T13:28:11;31.40;;;15.20;;
65871;SDS011;52653;50.080;21.992;2022-12-18T13:30:46;29.70;;;14.90;;
65871;SDS011;52653;50.080;21.992;2022-12-18T13:36:37;32.30;;;17.10;;
65871;SDS011;52653;50.080;21.992;2022-12-18T13:39:11;32.70;;;16.60;;
65871;SDS011;52653;50.080;21.992;2022-12-18T13:42:36;33.70;;;17.20;;
65871;SDS011;52653;50.080;21.992;2022-12-18T13:45:39;30.00;;;16.50;;
65871;SDS011;52653;50.080;21.992;2022-12-18T13:48:22;27.70;;;15.40;;
65871;SDS011;52653;50.080;21.992;2022-12-18T13:50:58;30.30;;;16.10;;
65871;SDS011;52653;50.080;21.992;2022-12-18T13:53:38;39.20;;;19.80;;
65871;SDS011;52653;50.080;21.992;2022-12-18T13:56:16;33.70;;;17.10;;
65871;SDS011;52653;50.080;21.992;2022-12-18T13:59:15;36.80;;;18.10;;
65871;SDS011;52653;50.080;21.992;2022-12-18T14:01:54;30.10;;;15.80;;
65871;SDS011;52653;50.080;21.992;2022-12-18T14:04:32;31.10;;;16.50;;
65871;SDS011;52653;50.080;21.992;2022-12-18T14:07:06;36.90;;;19.20;;
65871;SDS011;52653;50.080;21.992;2022-12-18T14:09:44;33.10;;;16.70;;
65871;SDS011;52653;50.080;21.992;2022-12-18T14:12:24;35.50;;;18.50;;
65871;SDS011;52653;50.080;21.992;2022-12-18T14:15:32;40.00;;;20.50;;
65871;SDS011;52653;50.080;21.992;2022-12-18T14:18:14;43.40;;;21.40;;
65871;SDS011;52653;50.080;21.992;2022-12-18T14:20:54;40.30;;;20.00;;
65871;SDS011;52653;50.080;21.992;2022-12-18T14:23:32;46.40;;;22.10;;
65871;SDS011;52653;50.080;21.992;2022-12-18T14:26:19;32.40;;;16.70;;
65871;SDS011;52653;50.080;21.992;2022-12-18T14:28:54;44.70;;;20.40;;
65871;SDS011;52653;50.080;21.992;2022-12-18T14:31:28;45.60;;;21.60;;
65871;SDS011;52653;50.080;21.992;2022-12-18T14:34:02;50.40;;;21.00;;
65871;SDS011;52653;50.080;21.992;2022-12-18T14:36:34;43.50;;;20.40;;
65871;SDS011;52653;50.080;21.992;2022-12-18T14:39:12;35.00;;;18.20;;
65871;SDS011;52653;50.080;21.992;2022-12-18T14:41:49;32.90;;;18.00;;
65871;SDS011;52653;50.080;21.992;2022-12-18T14:44:22;31.50;;;17.40;;
65871;SDS011;52653;50.080;21.992;2022-12-18T14:47:02;35.10;;;18.00;;
65871;SDS011;52653;50.080;21.992;2022-12-18T14:49:35;36.20;;;17.60;;
65871;SDS011;52653;50.080;21.992;2022-12-18T14:52:13;33.20;;;16.50;;
65871;SDS011;52653;50.080;21.992;2022-12-18T14:54:53;34.20;;;17.70;;
65871;SDS011;52653;50.080;21.992;2022-12-18T14:57:25;37.90;;;18.20;;
65871;SDS011;52653;50.080;21.992;2022-12-18T15:00:05;34.60;;;18.50;;
65871;SDS011;52653;50.080;21.992;2022-12-18T15:02:46;35.60;;;18.60;;
65871;SDS011;52653;50.080;21.992;2022-12-18T15:05:24;41.50;;;21.60;;
65871;SDS011;52653;50.080;21.992;2022-12-18T15:08:00;36.70;;;19.00;;
65871;SDS011;52653;50.080;21.992;2022-12-18T15:10:33;74.60;;;37.00;;
65871;SDS011;52653;50.080;21.992;2022-12-18T15:13:20;45.70;;;23.40;;
65871;SDS011;52653;50.080;21.992;2022-12-18T15:15:55;49.60;;;25.70;;
65871;SDS011;52653;50.080;21.992;2022-12-18T15:18:32;53.90;;;26.70;;
65871;SDS011;52653;50.080;21.992;2022-12-18T15:21:11;50.30;;;24.60;;